createdAt,value
2022-09-13T00:00:08.819Z,22.70
2022-09-13T00:00:20.534Z,22.70
2022-09-13T00:00:32.482Z,22.70
2022-09-13T00:00:44.734Z,22.70
2022-09-13T00:00:56.704Z,22.70
2022-09-13T00:01:08.654Z,22.70
2022-09-13T00:01:20.585Z,22.70
2022-09-13T00:01:32.377Z,22.70
2022-09-13T00:01:44.143Z,22.70
2022-09-13T00:01:56.031Z,22.70
2022-09-13T00:02:07.882Z,22.70
2022-09-13T00:02:19.754Z,22.70
2022-09-13T00:02:31.779Z,22.70
2022-09-13T00:02:43.546Z,22.80
2022-09-13T00:02:55.227Z,22.80
2022-09-13T00:03:07.610Z,22.80
2022-09-13T00:03:19.763Z,22.80
2022-09-13T00:03:31.521Z,22.80
2022-09-13T00:03:43.419Z,22.80
2022-09-13T00:03:55.332Z,22.80
2022-09-13T00:04:07.071Z,22.80
2022-09-13T00:04:18.884Z,22.80
2022-09-13T00:04:30.558Z,22.80
2022-09-13T00:04:42.403Z,22.80
2022-09-13T00:04:54.179Z,22.80
2022-09-13T00:05:06.363Z,22.80
2022-09-13T00:05:18.039Z,22.80
2022-09-13T00:05:29.841Z,22.80
2022-09-13T00:05:41.762Z,22.80
2022-09-13T00:05:53.553Z,22.80
2022-09-13T00:06:17.782Z,22.80
2022-09-13T00:06:29.513Z,22.80
2022-09-13T00:06:41.286Z,22.80
2022-09-13T00:06:53.101Z,22.90
2022-09-13T00:07:04.853Z,22.90
2022-09-13T00:07:16.623Z,22.80
2022-09-13T00:07:28.449Z,22.80
2022-09-13T00:07:40.155Z,22.80
2022-09-13T00:07:51.845Z,22.80
2022-09-13T00:08:03.695Z,22.80
2022-09-13T00:08:15.451Z,22.80
2022-09-13T00:08:27.224Z,22.80
2022-09-13T00:08:39.264Z,22.80
2022-09-13T00:08:51.149Z,22.80
2022-09-13T00:09:02.916Z,22.80
2022-09-13T00:09:14.591Z,22.80
2022-09-13T00:09:26.717Z,22.80
2022-09-13T00:09:38.513Z,22.80
2022-09-13T00:09:50.250Z,22.80
2022-09-13T00:10:02.104Z,22.80
2022-09-13T00:10:13.821Z,22.80
2022-09-13T00:10:26.222Z,22.80
2022-09-13T00:10:38.688Z,22.80
2022-09-13T00:10:50.421Z,22.80
2022-09-13T00:11:02.158Z,22.80
2022-09-13T00:11:20.226Z,22.80
2022-09-13T00:11:31.973Z,22.80
2022-09-13T00:11:43.715Z,22.80
2022-09-13T00:11:55.451Z,22.80
2022-09-13T00:12:07.292Z,22.80
2022-09-13T00:12:19.004Z,22.80
2022-09-13T00:12:30.714Z,22.80
2022-09-13T00:12:43.037Z,22.80
2022-09-13T00:12:54.760Z,22.80
2022-09-13T00:13:08.284Z,22.80
2022-09-13T00:13:20.051Z,22.80
2022-09-13T00:13:31.873Z,22.80
2022-09-13T00:13:43.820Z,22.80
2022-09-13T00:13:55.794Z,22.80
2022-09-13T00:14:07.611Z,22.70
2022-09-13T00:14:19.417Z,22.80
2022-09-13T00:14:31.158Z,22.80
2022-09-13T00:14:42.856Z,22.80
2022-09-13T00:14:54.664Z,22.80
2022-09-13T00:15:07.011Z,22.80
2022-09-13T00:15:18.950Z,22.80
2022-09-13T00:15:30.913Z,22.70
2022-09-13T00:15:44.580Z,22.70
2022-09-13T00:15:56.366Z,22.70
2022-09-13T00:16:14.079Z,22.70
2022-09-13T00:16:27.564Z,22.70
2022-09-13T00:16:39.422Z,22.70
2022-09-13T00:16:51.152Z,22.70
2022-09-13T00:17:03.014Z,22.70
2022-09-13T00:17:14.784Z,22.70
2022-09-13T00:17:26.941Z,22.70
2022-09-13T00:17:38.640Z,22.70
2022-09-13T00:17:50.294Z,22.70
2022-09-13T00:18:02.063Z,22.70
2022-09-13T00:18:14.137Z,22.70
2022-09-13T00:18:25.850Z,22.70
2022-09-13T00:18:37.662Z,22.70
2022-09-13T00:18:49.626Z,22.70
2022-09-13T00:19:01.542Z,22.70
2022-09-13T00:19:13.332Z,22.70
2022-09-13T00:19:25.083Z,22.70
2022-09-13T00:19:36.831Z,22.70
2022-09-13T00:19:48.539Z,22.70
2022-09-13T00:20:00.305Z,22.70
2022-09-13T00:20:12.109Z,22.70
2022-09-13T00:20:24.102Z,22.70
2022-09-13T00:20:35.889Z,22.70
2022-09-13T00:20:47.560Z,22.70
2022-09-13T00:21:13.357Z,22.70
2022-09-13T00:21:25.425Z,22.70
2022-09-13T00:21:37.172Z,22.70
2022-09-13T00:21:48.931Z,22.70
2022-09-13T00:22:00.684Z,22.70
2022-09-13T00:22:12.386Z,22.70
2022-09-13T00:22:24.101Z,22.70
2022-09-13T00:22:36.153Z,22.70
2022-09-13T00:22:48.010Z,22.70
2022-09-13T00:22:59.746Z,22.70
2022-09-13T00:23:11.918Z,22.70
2022-09-13T00:23:23.612Z,22.70
2022-09-13T00:23:36.201Z,22.70
2022-09-13T00:23:51.243Z,22.70
2022-09-13T00:24:02.970Z,22.70
2022-09-13T00:24:14.706Z,22.70
2022-09-13T00:24:26.452Z,22.70
2022-09-13T00:24:38.250Z,22.70
2022-09-13T00:24:50.231Z,22.70
2022-09-13T00:25:03.168Z,22.70
2022-09-13T00:25:14.905Z,22.70
2022-09-13T00:25:26.649Z,22.70
2022-09-13T00:25:38.563Z,22.70
2022-09-13T00:25:50.357Z,22.70
2022-09-13T00:26:06.476Z,22.70
2022-09-13T00:26:20.414Z,22.70
2022-09-13T00:26:32.129Z,22.70
2022-09-13T00:26:43.891Z,22.70
2022-09-13T00:26:55.665Z,22.70
2022-09-13T00:27:07.443Z,22.70
2022-09-13T00:27:19.223Z,22.70
2022-09-13T00:27:32.981Z,22.70
2022-09-13T00:27:44.999Z,22.70
2022-09-13T00:27:56.682Z,22.70
2022-09-13T00:28:08.584Z,22.70
2022-09-13T00:28:20.288Z,22.70
2022-09-13T00:28:32.048Z,22.70
2022-09-13T00:28:45.471Z,22.70
2022-09-13T00:28:58.175Z,22.70
2022-09-13T00:29:09.825Z,22.70
2022-09-13T00:29:21.605Z,22.70
2022-09-13T00:29:33.440Z,22.70
2022-09-13T00:29:45.195Z,22.70
2022-09-13T00:29:56.895Z,22.70
2022-09-13T00:30:09.441Z,22.70
2022-09-13T00:30:21.202Z,22.70
2022-09-13T00:30:33.372Z,22.70
2022-09-13T00:30:45.061Z,22.70
2022-09-13T00:31:00.604Z,22.70
2022-09-13T00:31:12.485Z,22.70
2022-09-13T00:31:25.245Z,22.70
2022-09-13T00:31:37.016Z,22.70
2022-09-13T00:31:49.125Z,22.70
2022-09-13T00:32:01.212Z,22.70
2022-09-13T00:32:13.311Z,22.70
2022-09-13T00:32:25.058Z,22.70
2022-09-13T00:32:36.857Z,22.70
2022-09-13T00:32:48.580Z,22.70
2022-09-13T00:33:04.469Z,22.70
2022-09-13T00:33:16.261Z,22.70
2022-09-13T00:33:28.020Z,22.70
2022-09-13T00:33:39.717Z,22.70
2022-09-13T00:33:51.621Z,22.70
2022-09-13T00:34:03.321Z,22.70
2022-09-13T00:34:15.049Z,22.70
2022-09-13T00:34:26.805Z,22.70
2022-09-13T00:34:38.604Z,22.70
2022-09-13T00:34:50.369Z,22.70
2022-09-13T00:35:03.766Z,22.70
2022-09-13T00:35:15.530Z,22.70
2022-09-13T00:35:27.336Z,22.70
2022-09-13T00:35:39.845Z,22.70
2022-09-13T00:35:51.754Z,22.70
2022-09-13T00:36:07.290Z,22.70
2022-09-13T00:36:19.122Z,22.70
2022-09-13T00:36:30.893Z,22.70
2022-09-13T00:36:42.610Z,22.70
2022-09-13T00:36:54.369Z,22.70
2022-09-13T00:37:06.187Z,22.70
2022-09-13T00:37:17.946Z,22.70
2022-09-13T00:37:29.820Z,22.70
2022-09-13T00:37:41.543Z,22.70
2022-09-13T00:37:53.293Z,22.70
2022-09-13T00:38:05.093Z,22.70
2022-09-13T00:38:16.858Z,22.70
2022-09-13T00:38:28.553Z,22.80
2022-09-13T00:38:40.425Z,22.70
2022-09-13T00:38:52.233Z,22.80
2022-09-13T00:39:03.955Z,22.80
2022-09-13T00:39:15.734Z,22.70
2022-09-13T00:39:27.459Z,22.80
2022-09-13T00:39:39.258Z,22.70
2022-09-13T00:39:51.102Z,22.80
2022-09-13T00:40:03.424Z,22.80
2022-09-13T00:40:15.216Z,22.80
2022-09-13T00:40:27.092Z,22.80
2022-09-13T00:40:38.885Z,22.80
2022-09-13T00:40:50.698Z,22.70
2022-09-13T00:41:06.629Z,22.80
2022-09-13T00:41:19.489Z,22.80
2022-09-13T00:41:31.313Z,22.80
2022-09-13T00:41:43.159Z,22.80
2022-09-13T00:41:54.902Z,22.80
2022-09-13T00:42:10.802Z,22.80
2022-09-13T00:42:26.815Z,22.80
2022-09-13T00:42:38.609Z,22.70
2022-09-13T00:42:50.298Z,22.70
2022-09-13T00:43:01.995Z,22.80
2022-09-13T00:43:18.373Z,22.70
2022-09-13T00:43:43.292Z,22.80
2022-09-13T00:43:56.780Z,22.80
2022-09-13T00:44:46.792Z,22.80
2022-09-13T00:45:12.267Z,22.80
2022-09-13T00:45:24.086Z,22.80
2022-09-13T00:45:35.927Z,22.70
2022-09-13T00:45:47.926Z,22.70
2022-09-13T00:45:59.658Z,22.70
2022-09-13T00:46:17.145Z,22.70
2022-09-13T00:46:28.862Z,22.70
2022-09-13T00:46:43.163Z,22.70
2022-09-13T00:46:54.850Z,22.70
2022-09-13T00:47:06.550Z,22.70
2022-09-13T00:47:24.925Z,22.70
2022-09-13T00:47:42.655Z,22.70
2022-09-13T00:47:59.499Z,22.70
2022-09-13T00:48:20.579Z,22.70
2022-09-13T00:48:32.307Z,22.70
2022-09-13T00:48:44.743Z,22.70
2022-09-13T00:49:02.993Z,22.60
2022-09-13T00:49:24.515Z,22.60
2022-09-13T00:49:36.980Z,22.60
2022-09-13T00:49:48.761Z,22.60
2022-09-13T00:50:30.727Z,22.60
2022-09-13T00:50:43.709Z,22.60
2022-09-13T00:50:55.612Z,22.60
2022-09-13T00:51:07.765Z,22.60
2022-09-13T00:51:19.565Z,22.60
2022-09-13T00:51:31.284Z,22.60
2022-09-13T00:51:45.224Z,22.60
2022-09-13T00:51:59.541Z,22.60
2022-09-13T00:52:13.642Z,22.60
2022-09-13T00:52:25.766Z,22.60
2022-09-13T00:52:37.519Z,22.60
2022-09-13T00:52:55.887Z,22.60
2022-09-13T00:53:09.289Z,22.60
2022-09-13T00:53:26.766Z,22.60
2022-09-13T00:53:39.743Z,22.60
2022-09-13T00:53:52.398Z,22.60
2022-09-13T00:54:04.086Z,22.50
2022-09-13T00:54:15.999Z,22.50
2022-09-13T00:54:29.813Z,22.50
2022-09-13T00:54:57.697Z,22.50
2022-09-13T00:55:16.307Z,22.50
2022-09-13T00:55:37.251Z,22.50
2022-09-13T00:55:54.643Z,22.50
2022-09-13T00:56:09.751Z,22.50
2022-09-13T00:56:45.717Z,22.50
2022-09-13T00:56:58.619Z,22.50
2022-09-13T00:57:10.357Z,22.50
2022-09-13T00:57:22.130Z,22.50
2022-09-13T00:57:33.897Z,22.50
2022-09-13T00:57:45.733Z,22.50
2022-09-13T00:58:00.614Z,22.50
2022-09-13T00:58:16.425Z,22.50
2022-09-13T00:58:30.688Z,22.50
2022-09-13T00:59:16.205Z,22.40
2022-09-13T00:59:33.879Z,22.40
2022-09-13T00:59:57.726Z,22.40
2022-09-13T01:00:13.834Z,22.40
2022-09-13T01:00:25.589Z,22.40
2022-09-13T01:00:37.339Z,22.40
2022-09-13T01:00:49.083Z,22.40
2022-09-13T01:01:01.112Z,22.40
2022-09-13T01:01:13.822Z,22.40
2022-09-13T01:01:28.358Z,22.40
2022-09-13T01:01:45.589Z,22.40
2022-09-13T01:01:57.401Z,22.30
2022-09-13T01:02:09.302Z,22.30
2022-09-13T01:02:21.208Z,22.30
2022-09-13T01:02:32.963Z,22.30
2022-09-13T01:02:47.848Z,22.30
2022-09-13T01:03:05.015Z,22.40
2022-09-13T01:03:17.084Z,22.30
2022-09-13T01:03:31.057Z,22.30
2022-09-13T01:03:42.971Z,22.30
2022-09-13T01:03:54.690Z,22.30
2022-09-13T01:04:09.624Z,22.30
2022-09-13T01:04:26.153Z,22.30
2022-09-13T01:04:37.934Z,22.30
2022-09-13T01:04:49.652Z,22.30
2022-09-13T01:05:01.334Z,22.30
2022-09-13T01:05:14.519Z,22.30
2022-09-13T01:05:28.172Z,22.30
2022-09-13T01:05:49.371Z,22.30
2022-09-13T01:06:13.357Z,22.30
2022-09-13T01:06:29.415Z,22.30
2022-09-13T01:06:41.254Z,22.30
2022-09-13T01:06:54.413Z,22.30
2022-09-13T01:07:08.561Z,22.30
2022-09-13T01:07:20.332Z,22.30
2022-09-13T01:07:32.089Z,22.30
2022-09-13T01:07:43.840Z,22.30
2022-09-13T01:07:55.807Z,22.30
2022-09-13T01:08:12.676Z,22.30
2022-09-13T01:08:24.380Z,22.20
2022-09-13T01:08:36.524Z,22.30
2022-09-13T01:08:50.978Z,22.30
2022-09-13T01:09:04.547Z,22.30
2022-09-13T01:09:16.302Z,22.30
2022-09-13T01:09:27.988Z,22.30
2022-09-13T01:09:41.810Z,22.30
2022-09-13T01:09:53.499Z,22.30
2022-09-13T01:10:07.618Z,22.30
2022-09-13T01:10:19.532Z,22.30
2022-09-13T01:10:31.800Z,22.30
2022-09-13T01:10:43.957Z,22.30
2022-09-13T01:10:55.722Z,22.30
2022-09-13T01:11:11.969Z,22.30
2022-09-13T01:11:32.143Z,22.30
2022-09-13T01:11:55.654Z,22.30
2022-09-13T01:12:16.248Z,22.30
2022-09-13T01:12:38.601Z,22.30
2022-09-13T01:12:57.299Z,22.30
2022-09-13T01:13:20.162Z,22.30
2022-09-13T01:13:33.345Z,22.30
2022-09-13T01:13:45.122Z,22.30
2022-09-13T01:13:56.933Z,22.30
2022-09-13T01:14:09.016Z,22.30
2022-09-13T01:14:20.969Z,22.30
2022-09-13T01:14:32.712Z,22.30
2022-09-13T01:14:44.752Z,22.30
2022-09-13T01:14:56.489Z,22.30
2022-09-13T01:15:08.727Z,22.30
2022-09-13T01:15:20.658Z,22.30
2022-09-13T01:15:32.380Z,22.30
2022-09-13T01:15:44.154Z,22.30
2022-09-13T01:15:55.885Z,22.30
2022-09-13T01:16:07.621Z,22.30
2022-09-13T01:16:19.420Z,22.30
2022-09-13T01:16:31.197Z,22.30
2022-09-13T01:16:47.149Z,22.30
2022-09-13T01:17:00.116Z,22.30
2022-09-13T01:17:11.789Z,22.30
2022-09-13T01:17:23.458Z,22.30
2022-09-13T01:17:35.210Z,22.30
2022-09-13T01:17:46.926Z,22.30
2022-09-13T01:17:58.657Z,22.30
2022-09-13T01:18:10.738Z,22.30
2022-09-13T01:18:22.634Z,22.30
2022-09-13T01:18:34.335Z,22.30
2022-09-13T01:18:46.014Z,22.30
2022-09-13T01:18:58.071Z,22.30
2022-09-13T01:19:09.927Z,22.30
2022-09-13T01:19:21.696Z,22.30
2022-09-13T01:19:33.392Z,22.30
2022-09-13T01:19:45.070Z,22.30
2022-09-13T01:19:56.832Z,22.30
2022-09-13T01:20:09.504Z,22.30
2022-09-13T01:20:22.621Z,22.30
2022-09-13T01:20:53.057Z,22.30
2022-09-13T01:21:32.308Z,22.30
2022-09-13T01:22:09.077Z,22.30
2022-09-13T01:22:36.291Z,22.30
2022-09-13T01:23:17.450Z,22.20
2022-09-13T01:23:54.965Z,22.20
2022-09-13T01:24:11.531Z,22.30
2022-09-13T01:24:41.466Z,22.20
2022-09-13T01:25:05.064Z,22.30
2022-09-13T01:25:43.687Z,22.20
2022-09-13T01:26:01.441Z,22.20
2022-09-13T01:26:37.668Z,22.20
2022-09-13T01:27:10.624Z,22.20
2022-09-13T01:27:38.367Z,22.20
2022-09-13T01:27:59.033Z,22.20
2022-09-13T01:28:15.590Z,22.20
2022-09-13T01:29:11.812Z,22.20
2022-09-13T01:29:31.998Z,22.20
2022-09-13T01:30:12.586Z,22.20
2022-09-13T01:30:24.868Z,22.20
2022-09-13T01:30:40.541Z,22.20
2022-09-13T01:31:06.712Z,22.20
2022-09-13T01:31:23.926Z,22.20
2022-09-13T01:32:00.138Z,22.20
2022-09-13T01:32:21.412Z,22.20
2022-09-13T01:32:54.283Z,22.20
2022-09-13T01:33:32.879Z,22.20
2022-09-13T01:34:13.178Z,22.20
2022-09-13T01:34:42.524Z,22.20
2022-09-13T01:35:02.709Z,22.20
2022-09-13T01:35:38.345Z,22.20
2022-09-13T01:35:52.968Z,22.20
2022-09-13T01:36:16.416Z,22.20
2022-09-13T01:37:20.093Z,22.20
2022-09-13T01:37:54.453Z,22.20
2022-09-13T01:38:34.021Z,22.20
2022-09-13T01:38:51.312Z,22.20
2022-09-13T01:39:06.805Z,22.20
2022-09-13T01:39:25.756Z,22.20
2022-09-13T01:40:06.103Z,22.20
2022-09-13T01:40:23.566Z,22.20
2022-09-13T01:41:01.849Z,22.20
2022-09-13T01:41:15.847Z,22.20
2022-09-13T01:42:01.849Z,22.20
2022-09-13T01:42:36.059Z,22.20
2022-09-13T01:43:01.101Z,22.20
2022-09-13T01:43:16.497Z,22.20
2022-09-13T01:43:49.747Z,22.20
2022-09-13T01:44:36.904Z,22.20
2022-09-13T01:45:05.693Z,22.20
2022-09-13T01:45:36.879Z,22.20
2022-09-13T01:46:10.087Z,22.20
2022-09-13T01:46:39.900Z,22.20
2022-09-13T01:47:13.985Z,22.20
2022-09-13T01:47:48.181Z,22.20
2022-09-13T01:48:17.173Z,22.20
2022-09-13T01:48:40.955Z,22.20
2022-09-13T01:48:58.789Z,22.20
2022-09-13T01:49:22.812Z,22.20
2022-09-13T01:49:40.271Z,22.20
2022-09-13T01:49:59.715Z,22.20
2022-09-13T01:50:19.297Z,22.20
2022-09-13T01:50:36.696Z,22.20
2022-09-13T01:50:56.351Z,22.20
2022-09-13T01:51:50.619Z,22.20
2022-09-13T01:52:17.010Z,22.20
2022-09-13T01:52:56.210Z,22.20
2022-09-13T01:53:11.037Z,22.20
2022-09-13T01:54:01.095Z,22.30
2022-09-13T01:54:18.677Z,22.20
2022-09-13T01:54:37.959Z,22.20
2022-09-13T01:55:08.354Z,22.20
2022-09-13T01:55:40.080Z,22.20
2022-09-13T01:55:57.965Z,22.20
2022-09-13T01:56:29.203Z,22.20
2022-09-13T01:57:01.029Z,22.20
2022-09-13T01:57:15.696Z,22.20
2022-09-13T01:57:38.169Z,22.20
2022-09-13T01:58:03.255Z,22.20
2022-09-13T01:58:17.388Z,22.30
2022-09-13T01:58:49.893Z,22.20
2022-09-13T01:59:05.394Z,22.20
2022-09-13T01:59:23.029Z,22.20
2022-09-13T01:59:53.628Z,22.20
2022-09-13T02:00:12.961Z,22.20
2022-09-13T02:00:24.631Z,22.20
2022-09-13T02:00:47.432Z,22.20
2022-09-13T02:01:08.374Z,22.20
2022-09-13T02:01:24.829Z,22.20
2022-09-13T02:01:39.526Z,22.20
2022-09-13T02:02:13.284Z,22.30
2022-09-13T02:02:51.451Z,22.30
2022-09-13T02:03:07.647Z,22.20
2022-09-13T02:03:22.479Z,22.20
2022-09-13T02:03:47.927Z,22.20
2022-09-13T02:04:13.425Z,22.20
2022-09-13T02:04:27.916Z,22.20
2022-09-13T02:04:54.339Z,22.20
2022-09-13T02:05:30.684Z,22.20
2022-09-13T02:05:52.089Z,22.20
2022-09-13T02:06:08.991Z,22.30
2022-09-13T02:06:22.332Z,22.20
2022-09-13T02:06:39.545Z,22.20
2022-09-13T02:07:09.367Z,22.20
2022-09-13T02:07:39.129Z,22.20
2022-09-13T02:07:55.020Z,22.20
2022-09-13T02:08:13.003Z,22.20
2022-09-13T02:08:44.128Z,22.30
2022-09-13T02:08:58.438Z,22.30
2022-09-13T02:09:11.988Z,22.30
2022-09-13T02:09:25.392Z,22.30
2022-09-13T02:09:39.769Z,22.30
2022-09-13T02:09:56.684Z,22.30
2022-09-13T02:10:12.625Z,22.30
2022-09-13T02:10:30.312Z,22.30
2022-09-13T02:10:45.786Z,22.30
2022-09-13T02:11:00.622Z,22.30
2022-09-13T02:11:13.752Z,22.30
2022-09-13T02:11:25.513Z,22.30
2022-09-13T02:11:37.176Z,22.30
2022-09-13T02:11:54.937Z,22.30
2022-09-13T02:12:13.583Z,22.30
2022-09-13T02:12:26.927Z,22.30
2022-09-13T02:12:39.432Z,22.30
2022-09-13T02:12:51.152Z,22.30
2022-09-13T02:13:03.130Z,22.30
2022-09-13T02:13:18.639Z,22.30
2022-09-13T02:13:34.024Z,22.30
2022-09-13T02:14:04.194Z,22.30
2022-09-13T02:14:21.693Z,22.30
2022-09-13T02:14:40.876Z,22.30
2022-09-13T02:15:16.465Z,22.30
2022-09-13T02:15:32.102Z,22.30
2022-09-13T02:15:48.654Z,22.30
2022-09-13T02:16:02.465Z,22.30
2022-09-13T02:16:20.694Z,22.30
2022-09-13T02:16:35.084Z,22.30
2022-09-13T02:17:13.624Z,22.30
2022-09-13T02:17:26.342Z,22.30
2022-09-13T02:17:39.704Z,22.30
2022-09-13T02:18:01.128Z,22.30
2022-09-13T02:18:22.049Z,22.30
2022-09-13T02:18:35.993Z,22.30
2022-09-13T02:18:49.663Z,22.30
2022-09-13T02:19:13.333Z,22.30
2022-09-13T02:19:27.580Z,22.30
2022-09-13T02:19:42.163Z,22.30
2022-09-13T02:20:01.722Z,22.30
2022-09-13T02:20:18.317Z,22.30
2022-09-13T02:20:34.940Z,22.30
2022-09-13T02:20:48.031Z,22.30
2022-09-13T02:21:01.926Z,22.40
2022-09-13T02:21:20.598Z,22.40
2022-09-13T02:21:34.229Z,22.40
2022-09-13T02:21:52.330Z,22.40
2022-09-13T02:22:05.486Z,22.40
2022-09-13T02:22:18.746Z,22.40
2022-09-13T02:22:38.972Z,22.40
2022-09-13T02:22:54.060Z,22.30
2022-09-13T02:23:09.920Z,22.30
2022-09-13T02:23:26.306Z,22.40
2022-09-13T02:24:01.396Z,22.30
2022-09-13T02:24:18.296Z,22.30
2022-09-13T02:24:32.602Z,22.30
2022-09-13T02:24:46.374Z,22.30
2022-09-13T02:25:00.899Z,22.30
2022-09-13T02:25:14.433Z,22.30
2022-09-13T02:25:26.445Z,22.30
2022-09-13T02:25:38.203Z,22.30
2022-09-13T02:25:49.901Z,22.30
2022-09-13T02:26:01.870Z,22.30
2022-09-13T02:26:14.146Z,22.30
2022-09-13T02:26:25.806Z,22.30
2022-09-13T02:26:38.142Z,22.40
2022-09-13T02:26:50.865Z,22.40
2022-09-13T02:27:10.336Z,22.30
2022-09-13T02:27:24.911Z,22.40
2022-09-13T02:27:36.602Z,22.30
2022-09-13T02:27:50.239Z,22.30
2022-09-13T02:28:03.612Z,22.40
2022-09-13T02:28:16.536Z,22.30
2022-09-13T02:28:33.831Z,22.30
2022-09-13T02:28:48.209Z,22.30
2022-09-13T02:29:02.413Z,22.30
2022-09-13T02:29:17.871Z,22.30
2022-09-13T02:29:29.624Z,22.40
2022-09-13T02:29:43.853Z,22.40
2022-09-13T02:30:01.671Z,22.30
2022-09-13T02:30:14.312Z,22.40
2022-09-13T02:30:26.213Z,22.40
2022-09-13T02:30:40.509Z,22.40
2022-09-13T02:30:52.409Z,22.40
2022-09-13T02:31:04.958Z,22.40
2022-09-13T02:31:18.975Z,22.40
2022-09-13T02:31:41.460Z,22.40
2022-09-13T02:31:58.505Z,22.40
2022-09-13T02:32:23.720Z,22.40
2022-09-13T02:32:49.419Z,22.40
2022-09-13T02:33:04.998Z,22.40
2022-09-13T02:33:19.103Z,22.40
2022-09-13T02:33:37.849Z,22.40
2022-09-13T02:33:52.745Z,22.30
2022-09-13T02:34:07.833Z,22.30
2022-09-13T02:34:22.489Z,22.30
2022-09-13T02:34:39.547Z,22.30
2022-09-13T02:34:57.404Z,22.30
2022-09-13T02:35:14.251Z,22.30
2022-09-13T02:35:43.723Z,22.30
2022-09-13T02:36:03.225Z,22.30
2022-09-13T02:36:17.602Z,22.30
2022-09-13T02:36:34.605Z,22.30
2022-09-13T02:36:46.435Z,22.30
2022-09-13T02:36:58.260Z,22.30
2022-09-13T02:37:09.994Z,22.30
2022-09-13T02:37:21.677Z,22.30
2022-09-13T02:37:34.780Z,22.30
2022-09-13T02:37:48.781Z,22.30
2022-09-13T02:38:05.700Z,22.30
2022-09-13T02:38:22.378Z,22.30
2022-09-13T02:38:53.494Z,22.30
2022-09-13T02:39:15.612Z,22.30
2022-09-13T02:39:27.353Z,22.30
2022-09-13T02:39:43.777Z,22.20
2022-09-13T02:39:58.145Z,22.20
2022-09-13T02:40:14.284Z,22.20
2022-09-13T02:40:28.691Z,22.20
2022-09-13T02:40:43.291Z,22.20
2022-09-13T02:41:18.365Z,22.20
2022-09-13T02:41:39.657Z,22.20
2022-09-13T02:42:12.848Z,22.20
2022-09-13T02:42:31.029Z,22.20
2022-09-13T02:42:45.249Z,22.30
2022-09-13T02:43:04.867Z,22.30
2022-09-13T02:43:20.630Z,22.30
2022-09-13T02:43:35.706Z,22.20
2022-09-13T02:43:50.563Z,22.30
2022-09-13T02:44:38.487Z,22.30
2022-09-13T02:44:53.557Z,22.20
2022-09-13T02:45:06.359Z,22.20
2022-09-13T02:45:18.150Z,22.30
2022-09-13T02:45:32.176Z,22.20
2022-09-13T02:45:51.219Z,22.30
2022-09-13T02:46:20.964Z,22.30
2022-09-13T02:46:35.642Z,22.20
2022-09-13T02:47:14.357Z,22.20
2022-09-13T02:47:31.221Z,22.30
2022-09-13T02:47:57.425Z,22.30
2022-09-13T02:48:12.510Z,22.20
2022-09-13T02:48:37.502Z,22.20
2022-09-13T02:49:00.398Z,22.30
2022-09-13T02:49:20.373Z,22.30
2022-09-13T02:49:43.051Z,22.20
2022-09-13T02:50:09.093Z,22.20
2022-09-13T02:50:41.043Z,22.20
2022-09-13T02:51:04.223Z,22.20
2022-09-13T02:51:46.608Z,22.20
2022-09-13T02:52:03.146Z,22.20
2022-09-13T02:52:39.735Z,22.20
2022-09-13T02:52:54.523Z,22.20
2022-09-13T02:53:25.252Z,22.20
2022-09-13T02:53:53.202Z,22.20
2022-09-13T02:54:41.749Z,22.20
2022-09-13T02:55:17.880Z,22.20
2022-09-13T02:55:31.673Z,22.20
2022-09-13T02:55:55.325Z,22.20
2022-09-13T02:56:21.982Z,22.20
2022-09-13T02:56:56.119Z,22.20
2022-09-13T02:57:16.176Z,22.20
2022-09-13T02:57:39.032Z,22.20
2022-09-13T02:58:02.980Z,22.20
2022-09-13T02:58:14.709Z,22.20
2022-09-13T02:58:35.482Z,22.20
2022-09-13T02:59:04.396Z,22.20
2022-09-13T02:59:17.487Z,22.20
2022-09-13T02:59:29.296Z,22.20
2022-09-13T02:59:40.994Z,22.20
2022-09-13T02:59:52.759Z,22.20
2022-09-13T03:00:04.978Z,22.20
2022-09-13T03:00:16.793Z,22.20
2022-09-13T03:00:29.029Z,22.20
2022-09-13T03:00:40.994Z,22.20
2022-09-13T03:00:53.037Z,22.20
2022-09-13T03:01:04.855Z,22.20
2022-09-13T03:01:16.902Z,22.20
2022-09-13T03:01:28.874Z,22.20
2022-09-13T03:01:40.841Z,22.20
2022-09-13T03:01:59.920Z,22.20
2022-09-13T03:02:14.333Z,22.20
2022-09-13T03:02:28.851Z,22.20
2022-09-13T03:02:40.801Z,22.20
2022-09-13T03:02:52.614Z,22.20
2022-09-13T03:03:05.366Z,22.20
2022-09-13T03:03:17.247Z,22.20
2022-09-13T03:03:29.024Z,22.20
2022-09-13T03:03:40.739Z,22.20
2022-09-13T03:03:54.081Z,22.20
2022-09-13T03:04:05.826Z,22.20
2022-09-13T03:04:17.510Z,22.20
2022-09-13T03:04:29.207Z,22.20
2022-09-13T03:04:40.955Z,22.10
2022-09-13T03:04:53.011Z,22.20
2022-09-13T03:05:04.969Z,22.20
2022-09-13T03:05:16.976Z,22.20
2022-09-13T03:05:28.671Z,22.20
2022-09-13T03:05:40.438Z,22.10
2022-09-13T03:05:53.086Z,22.10
2022-09-13T03:06:04.984Z,22.10
2022-09-13T03:06:29.106Z,22.10
2022-09-13T03:06:41.443Z,22.10
2022-09-13T03:06:53.287Z,22.10
2022-09-13T03:07:09.374Z,22.20
2022-09-13T03:07:21.155Z,22.20
2022-09-13T03:07:33.019Z,22.10
2022-09-13T03:07:44.700Z,22.20
2022-09-13T03:07:56.697Z,22.10
2022-09-13T03:08:10.527Z,22.10
2022-09-13T03:08:22.216Z,22.10
2022-09-13T03:08:33.903Z,22.10
2022-09-13T03:08:45.691Z,22.10
2022-09-13T03:09:00.386Z,22.10
2022-09-13T03:09:12.108Z,22.10
2022-09-13T03:09:23.845Z,22.10
2022-09-13T03:09:35.515Z,22.10
2022-09-13T03:09:55.050Z,22.10
2022-09-13T03:10:08.384Z,22.10
2022-09-13T03:10:20.512Z,22.10
2022-09-13T03:10:39.908Z,22.10
2022-09-13T03:10:58.110Z,22.10
2022-09-13T03:11:18.684Z,22.00
2022-09-13T03:11:36.683Z,22.00
2022-09-13T03:11:58.953Z,22.10
2022-09-13T03:12:40.952Z,22.10
2022-09-13T03:13:05.208Z,22.00
2022-09-13T03:13:42.510Z,22.00
2022-09-13T03:14:28.934Z,22.00
2022-09-13T03:15:00.954Z,22.00
2022-09-13T03:15:17.993Z,22.00
2022-09-13T03:15:45.493Z,22.00
2022-09-13T03:16:00.737Z,22.00
2022-09-13T03:16:19.065Z,22.00
2022-09-13T03:16:55.721Z,22.00
2022-09-13T03:17:27.794Z,22.00
2022-09-13T03:17:51.555Z,22.00
2022-09-13T03:18:12.528Z,22.00
2022-09-13T03:18:45.775Z,22.00
2022-09-13T03:19:13.020Z,21.90
2022-09-13T03:19:39.689Z,21.90
2022-09-13T03:20:01.141Z,21.90
2022-09-13T03:20:21.866Z,22.00
2022-09-13T03:20:45.613Z,21.90
2022-09-13T03:21:20.426Z,21.90
2022-09-13T03:21:40.784Z,21.90
2022-09-13T03:22:29.751Z,21.90
2022-09-13T03:23:04.614Z,21.90
2022-09-13T03:23:36.199Z,21.90
2022-09-13T03:24:12.959Z,21.90
2022-09-13T03:24:37.952Z,21.90
2022-09-13T03:25:06.441Z,21.90
2022-09-13T03:25:41.260Z,21.90
2022-09-13T03:26:01.636Z,21.90
2022-09-13T03:26:13.598Z,21.90
2022-09-13T03:26:34.841Z,21.90
2022-09-13T03:27:08.009Z,21.90
2022-09-13T03:27:34.284Z,21.90
2022-09-13T03:28:10.845Z,21.90
2022-09-13T03:28:37.529Z,21.90
2022-09-13T03:28:58.045Z,21.90
2022-09-13T03:29:31.595Z,21.80
2022-09-13T03:30:06.635Z,21.80
2022-09-13T03:30:18.489Z,21.90
2022-09-13T03:30:30.684Z,21.90
2022-09-13T03:30:45.623Z,21.80
2022-09-13T03:31:04.823Z,21.80
2022-09-13T03:31:28.242Z,21.80
2022-09-13T03:32:02.603Z,21.80
2022-09-13T03:32:49.881Z,21.90
2022-09-13T03:33:23.014Z,21.90
2022-09-13T03:34:03.609Z,21.80
2022-09-13T03:34:25.063Z,21.90
2022-09-13T03:34:48.093Z,21.90
2022-09-13T03:35:24.533Z,21.90
2022-09-13T03:35:41.859Z,21.90
2022-09-13T03:35:59.369Z,21.90
2022-09-13T03:36:47.908Z,21.90
2022-09-13T03:38:12.278Z,21.90
2022-09-13T03:38:44.884Z,21.90
2022-09-13T03:39:03.377Z,21.90
2022-09-13T03:39:35.539Z,21.90
2022-09-13T03:40:11.708Z,21.90
2022-09-13T03:40:42.639Z,21.90
2022-09-13T03:40:58.870Z,21.90
2022-09-13T03:41:13.514Z,21.90
2022-09-13T03:41:27.939Z,21.90
2022-09-13T03:41:42.037Z,21.90
2022-09-13T03:41:56.604Z,21.90
2022-09-13T03:42:20.448Z,21.90
2022-09-13T03:42:37.846Z,21.90
2022-09-13T03:42:55.029Z,21.90
2022-09-13T03:45:24.193Z,21.90
2022-09-13T03:45:39.110Z,21.90
2022-09-13T03:45:53.607Z,21.90
2022-09-13T03:46:07.368Z,21.90
2022-09-13T03:46:24.867Z,21.90
2022-09-13T03:46:38.856Z,21.90
2022-09-13T03:46:53.097Z,21.90
2022-09-13T03:47:04.909Z,21.90
2022-09-13T03:47:16.665Z,21.90
2022-09-13T03:47:28.453Z,21.90
2022-09-13T03:47:40.666Z,21.90
2022-09-13T03:47:52.415Z,21.90
2022-09-13T03:48:04.364Z,21.90